sensor_id;sensor_type;location;lat;lon;timestamp;pressure;altitude;pressure_sealevel;temperature;humidity
73624;BME280;61921;53.226;-1.296;2022-12-10T00:00:51;99730.35;;;0.72;90.47
73624;BME280;61921;53.226;-1.296;2022-12-10T00:03:16;99727.64;;;0.80;90.49
73624;BME280;61921;53.226;-1.296;2022-12-10T00:05:42;99724.21;;;0.91;89.47
73624;BME280;61921;53.226;-1.296;2022-12-10T00:08:07;99722.43;;;0.92;89.56
73624;BME280;61921;53.226;-1.296;2022-12-10T00:10:33;99718.22;;;0.87;90.27
73624;BME280;61921;53.226;-1.296;2022-12-10T00:12:58;99714.80;;;0.94;88.98
73624;BME280;61921;53.226;-1.296;2022-12-10T00:15:23;99714.41;;;1.01;88.06
73624;BME280;61921;53.226;-1.296;2022-12-10T00:17:49;99714.51;;;1.02;86.98
73624;BME280;61921;53.226;-1.296;2022-12-10T00:20:14;99714.67;;;0.83;88.03
73624;BME280;61921;53.226;-1.296;2022-12-10T00:22:39;99713.27;;;0.82;88.12
73624;BME280;61921;53.226;-1.296;2022-12-10T00:25:05;99710.95;;;0.79;88.91
73624;BME280;61921;53.226;-1.296;2022-12-10T00:27:30;99711.64;;;0.84;88.40
73624;BME280;61921;53.226;-1.296;2022-12-10T00:29:55;99714.84;;;0.79;88.74
73624;BME280;61921;53.226;-1.296;2022-12-10T00:32:20;99717.92;;;0.75;89.50
73624;BME280;61921;53.226;-1.296;2022-12-10T00:34:46;99720.83;;;0.81;89.84
73624;BME280;61921;53.226;-1.296;2022-12-10T00:37:11;99720.95;;;0.99;89.21
73624;BME280;61921;53.226;-1.296;2022-12-10T00:39:36;99721.25;;;1.07;89.06
73624;BME280;61921;53.226;-1.296;2022-12-10T00:42:03;99722.34;;;1.22;89.27
73624;BME280;61921;53.226;-1.296;2022-12-10T00:44:27;99721.76;;;1.33;89.27
73624;BME280;61921;53.226;-1.296;2022-12-10T00:46:52;99728.13;;;1.48;89.15
73624;BME280;61921;53.226;-1.296;2022-12-10T00:49:18;99728.93;;;1.62;89.24
73624;BME280;61921;53.226;-1.296;2022-12-10T00:51:44;99729.09;;;1.72;88.31
73624;BME280;61921;53.226;-1.296;2022-12-10T00:54:10;99730.38;;;1.75;87.97
73624;BME280;61921;53.226;-1.296;2022-12-10T00:56:35;99730.52;;;1.68;88.11
73624;BME280;61921;53.226;-1.296;2022-12-10T00:59:02;99730.99;;;1.72;87.96
73624;BME280;61921;53.226;-1.296;2022-12-10T01:01:29;99733.52;;;1.63;88.60
73624;BME280;61921;53.226;-1.296;2022-12-10T01:03:55;99734.35;;;1.69;88.65
73624;BME280;61921;53.226;-1.296;2022-12-10T01:06:19;99731.50;;;1.77;87.77
73624;BME280;61921;53.226;-1.296;2022-12-10T01:08:44;99730.60;;;1.83;87.17
73624;BME280;61921;53.226;-1.296;2022-12-10T01:11:10;99732.66;;;1.72;87.13
73624;BME280;61921;53.226;-1.296;2022-12-10T01:13:34;99732.65;;;1.65;87.82
73624;BME280;61921;53.226;-1.296;2022-12-10T01:16:01;99734.07;;;1.61;88.03
73624;BME280;61921;53.226;-1.296;2022-12-10T01:18:25;99734.29;;;1.61;88.21
73624;BME280;61921;53.226;-1.296;2022-12-10T01:20:50;99732.25;;;1.69;88.71
73624;BME280;61921;53.226;-1.296;2022-12-10T01:23:16;99734.69;;;1.67;89.53
73624;BME280;61921;53.226;-1.296;2022-12-10T01:25:41;99732.25;;;1.87;89.42
73624;BME280;61921;53.226;-1.296;2022-12-10T01:28:07;99734.37;;;2.03;88.77
73624;BME280;61921;53.226;-1.296;2022-12-10T01:30:32;99734.57;;;2.06;89.25
73624;BME280;61921;53.226;-1.296;2022-12-10T01:32:57;99735.42;;;2.16;88.93
73624;BME280;61921;53.226;-1.296;2022-12-10T01:35:23;99737.13;;;2.19;89.41
73624;BME280;61921;53.226;-1.296;2022-12-10T01:37:49;99734.62;;;2.23;88.74
73624;BME280;61921;53.226;-1.296;2022-12-10T01:40:14;99737.96;;;2.25;88.34
73624;BME280;61921;53.226;-1.296;2022-12-10T01:42:39;99732.50;;;2.31;87.78
73624;BME280;61921;53.226;-1.296;2022-12-10T01:45:10;99729.31;;;2.30;86.96
73624;BME280;61921;53.226;-1.296;2022-12-10T01:47:30;99732.70;;;2.26;86.30
73624;BME280;61921;53.226;-1.296;2022-12-10T01:49:57;99732.52;;;2.13;87.11
73624;BME280;61921;53.226;-1.296;2022-12-10T01:52:21;99727.15;;;1.90;89.15
73624;BME280;61921;53.226;-1.296;2022-12-10T01:54:47;99724.52;;;1.87;88.27
73624;BME280;61921;53.226;-1.296;2022-12-10T01:57:13;99729.75;;;1.71;89.30
73624;BME280;61921;53.226;-1.296;2022-12-10T01:59:38;99729.57;;;1.84;88.68
73624;BME280;61921;53.226;-1.296;2022-12-10T02:02:08;99731.07;;;1.77;87.90
73624;BME280;61921;53.226;-1.296;2022-12-10T02:04:33;99730.70;;;1.26;88.98
73624;BME280;61921;53.226;-1.296;2022-12-10T02:06:58;99732.72;;;1.02;91.46
73624;BME280;61921;53.226;-1.296;2022-12-10T02:09:25;99735.05;;;1.00;91.86
73624;BME280;61921;53.226;-1.296;2022-12-10T02:11:48;99736.73;;;0.99;92.32
73624;BME280;61921;53.226;-1.296;2022-12-10T02:14:14;99734.54;;;0.89;91.97
73624;BME280;61921;53.226;-1.296;2022-12-10T02:16:38;99730.24;;;1.18;90.19
73624;BME280;61921;53.226;-1.296;2022-12-10T02:19:13;99730.63;;;0.96;90.27
73624;BME280;61921;53.226;-1.296;2022-12-10T02:21:30;99725.80;;;0.79;90.72
73624;BME280;61921;53.226;-1.296;2022-12-10T02:23:54;99723.16;;;1.03;89.83
73624;BME280;61921;53.226;-1.296;2022-12-10T02:26:22;99723.11;;;0.75;90.61
73624;BME280;61921;53.226;-1.296;2022-12-10T02:28:46;99718.77;;;0.85;90.27
73624;BME280;61921;53.226;-1.296;2022-12-10T02:31:09;99720.48;;;0.92;89.93
73624;BME280;61921;53.226;-1.296;2022-12-10T02:33:34;99723.11;;;0.74;89.81
73624;BME280;61921;53.226;-1.296;2022-12-10T02:35:58;99722.11;;;0.89;90.03
73624;BME280;61921;53.226;-1.296;2022-12-10T02:38:26;99719.65;;;0.78;90.90
73624;BME280;61921;53.226;-1.296;2022-12-10T02:40:53;99722.57;;;0.73;91.94
73624;BME280;61921;53.226;-1.296;2022-12-10T02:43:15;99723.40;;;0.59;92.22
73624;BME280;61921;53.226;-1.296;2022-12-10T02:45:41;99721.03;;;0.56;93.39
73624;BME280;61921;53.226;-1.296;2022-12-10T02:48:06;99722.28;;;0.43;93.20
73624;BME280;61921;53.226;-1.296;2022-12-10T02:50:32;99724.65;;;0.44;92.81
73624;BME280;61921;53.226;-1.296;2022-12-10T02:52:57;99726.81;;;0.30;92.90
73624;BME280;61921;53.226;-1.296;2022-12-10T02:55:22;99725.46;;;0.34;94.32
73624;BME280;61921;53.226;-1.296;2022-12-10T02:57:57;99724.92;;;0.19;92.24
73624;BME280;61921;53.226;-1.296;2022-12-10T03:00:15;99721.05;;;-0.15;93.21
73624;BME280;61921;53.226;-1.296;2022-12-10T03:02:47;99714.44;;;-0.00;93.13
73624;BME280;61921;53.226;-1.296;2022-12-10T03:05:11;99713.04;;;0.06;95.58
73624;BME280;61921;53.226;-1.296;2022-12-10T03:07:35;99714.07;;;0.18;94.52
73624;BME280;61921;53.226;-1.296;2022-12-10T03:09:59;99718.28;;;0.43;92.59
73624;BME280;61921;53.226;-1.296;2022-12-10T03:12:24;99721.74;;;0.46;90.89
73624;BME280;61921;53.226;-1.296;2022-12-10T03:14:48;99723.84;;;0.35;91.33
73624;BME280;61921;53.226;-1.296;2022-12-10T03:17:13;99722.33;;;0.49;90.47
73624;BME280;61921;53.226;-1.296;2022-12-10T03:19:41;99722.17;;;0.51;89.98
73624;BME280;61921;53.226;-1.296;2022-12-10T03:22:04;99727.73;;;0.28;92.68
73624;BME280;61921;53.226;-1.296;2022-12-10T03:24:30;99729.88;;;0.57;92.76
73624;BME280;61921;53.226;-1.296;2022-12-10T03:26:55;99731.27;;;0.73;92.09
73624;BME280;61921;53.226;-1.296;2022-12-10T03:29:23;99729.24;;;0.89;91.14
73624;BME280;61921;53.226;-1.296;2022-12-10T03:31:45;99729.30;;;0.85;91.40
73624;BME280;61921;53.226;-1.296;2022-12-10T03:34:10;99726.96;;;0.92;90.87
73624;BME280;61921;53.226;-1.296;2022-12-10T03:36:37;99721.87;;;0.98;90.32
73624;BME280;61921;53.226;-1.296;2022-12-10T03:39:02;99723.71;;;0.96;90.68
73624;BME280;61921;53.226;-1.296;2022-12-10T03:41:27;99716.54;;;1.09;91.23
73624;BME280;61921;53.226;-1.296;2022-12-10T03:43:54;99716.49;;;0.88;93.43
73624;BME280;61921;53.226;-1.296;2022-12-10T03:46:18;99715.83;;;0.93;93.96
73624;BME280;61921;53.226;-1.296;2022-12-10T03:48:43;99717.76;;;1.18;93.86
73624;BME280;61921;53.226;-1.296;2022-12-10T03:51:08;99718.43;;;1.12;94.24
73624;BME280;61921;53.226;-1.296;2022-12-10T03:53:33;99715.47;;;1.23;94.26
73624;BME280;61921;53.226;-1.296;2022-12-10T03:55:59;99714.08;;;1.32;94.20
73624;BME280;61921;53.226;-1.296;2022-12-10T03:58:25;99718.46;;;1.46;94.01
73624;BME280;61921;53.226;-1.296;2022-12-10T04:00:50;99718.10;;;1.65;93.55
73624;BME280;61921;53.226;-1.296;2022-12-10T04:03:15;99715.23;;;1.75;92.77
73624;BME280;61921;53.226;-1.296;2022-12-10T04:05:41;99712.12;;;1.96;92.44
73624;BME280;61921;53.226;-1.296;2022-12-10T04:08:07;99706.51;;;2.23;91.10
73624;BME280;61921;53.226;-1.296;2022-12-10T04:10:35;99704.56;;;2.44;89.99
73624;BME280;61921;53.226;-1.296;2022-12-10T04:12:58;99703.69;;;2.56;88.64
73624;BME280;61921;53.226;-1.296;2022-12-10T04:15:23;99703.76;;;2.65;87.44
73624;BME280;61921;53.226;-1.296;2022-12-10T04:17:49;99705.85;;;2.62;86.80
73624;BME280;61921;53.226;-1.296;2022-12-10T04:20:14;99707.94;;;2.59;88.25
73624;BME280;61921;53.226;-1.296;2022-12-10T04:22:40;99709.61;;;2.60;87.83
73624;BME280;61921;53.226;-1.296;2022-12-10T04:25:06;99708.32;;;2.70;87.05
73624;BME280;61921;53.226;-1.296;2022-12-10T04:27:32;99704.88;;;2.79;87.12
73624;BME280;61921;53.226;-1.296;2022-12-10T04:29:57;99702.65;;;2.57;87.15
73624;BME280;61921;53.226;-1.296;2022-12-10T04:32:22;99698.46;;;2.76;86.44
73624;BME280;61921;53.226;-1.296;2022-12-10T04:34:48;99694.36;;;2.69;85.57
73624;BME280;61921;53.226;-1.296;2022-12-10T04:37:13;99692.04;;;2.50;85.63
73624;BME280;61921;53.226;-1.296;2022-12-10T04:39:38;99689.80;;;2.40;86.04
73624;BME280;61921;53.226;-1.296;2022-12-10T04:42:04;99690.41;;;2.33;85.57
73624;BME280;61921;53.226;-1.296;2022-12-10T04:44:28;99690.16;;;1.87;88.48
73624;BME280;61921;53.226;-1.296;2022-12-10T04:46:53;99690.02;;;1.74;89.53
73624;BME280;61921;53.226;-1.296;2022-12-10T04:49:19;99690.00;;;1.38;92.12
73624;BME280;61921;53.226;-1.296;2022-12-10T04:51:45;99687.10;;;1.20;92.64
73624;BME280;61921;53.226;-1.296;2022-12-10T04:54:11;99683.01;;;1.02;93.11
73624;BME280;61921;53.226;-1.296;2022-12-10T04:56:36;99684.99;;;1.33;91.41
73624;BME280;61921;53.226;-1.296;2022-12-10T04:59:01;99686.90;;;1.42;91.78
73624;BME280;61921;53.226;-1.296;2022-12-10T05:01:27;99682.62;;;1.64;91.21
73624;BME280;61921;53.226;-1.296;2022-12-10T05:03:52;99685.89;;;1.60;91.03
73624;BME280;61921;53.226;-1.296;2022-12-10T05:06:18;99687.04;;;1.84;92.22
73624;BME280;61921;53.226;-1.296;2022-12-10T05:08:42;99685.36;;;1.92;90.18
73624;BME280;61921;53.226;-1.296;2022-12-10T05:11:10;99688.50;;;2.07;90.56
73624;BME280;61921;53.226;-1.296;2022-12-10T05:13:33;99686.31;;;2.17;89.12
73624;BME280;61921;53.226;-1.296;2022-12-10T05:16:01;99688.38;;;2.35;89.59
73624;BME280;61921;53.226;-1.296;2022-12-10T05:18:23;99692.18;;;2.41;89.10
73624;BME280;61921;53.226;-1.296;2022-12-10T05:20:49;99690.66;;;2.28;89.98
73624;BME280;61921;53.226;-1.296;2022-12-10T05:23:14;99689.73;;;2.66;89.10
73624;BME280;61921;53.226;-1.296;2022-12-10T05:25:40;99689.41;;;2.71;88.47
73624;BME280;61921;53.226;-1.296;2022-12-10T05:28:05;99690.19;;;2.90;88.60
73624;BME280;61921;53.226;-1.296;2022-12-10T05:30:30;99690.40;;;3.04;87.05
73624;BME280;61921;53.226;-1.296;2022-12-10T05:32:56;99692.84;;;3.10;86.60
73624;BME280;61921;53.226;-1.296;2022-12-10T05:35:21;99692.70;;;3.17;86.34
73624;BME280;61921;53.226;-1.296;2022-12-10T05:37:48;99694.33;;;3.21;85.95
73624;BME280;61921;53.226;-1.296;2022-12-10T05:40:13;99692.02;;;3.28;85.96
73624;BME280;61921;53.226;-1.296;2022-12-10T05:42:38;99689.68;;;3.29;85.44
73624;BME280;61921;53.226;-1.296;2022-12-10T05:45:05;99686.36;;;3.30;85.23
73624;BME280;61921;53.226;-1.296;2022-12-10T05:47:29;99686.16;;;3.29;84.87
73624;BME280;61921;53.226;-1.296;2022-12-10T05:49:54;99685.56;;;3.24;85.07
73624;BME280;61921;53.226;-1.296;2022-12-10T05:52:20;99686.57;;;3.17;85.19
73624;BME280;61921;53.226;-1.296;2022-12-10T05:54:45;99683.55;;;2.96;86.28
73624;BME280;61921;53.226;-1.296;2022-12-10T05:57:11;99687.22;;;3.08;86.13
73624;BME280;61921;53.226;-1.296;2022-12-10T05:59:36;99684.10;;;3.11;85.95
73624;BME280;61921;53.226;-1.296;2022-12-10T06:02:02;99687.71;;;3.13;86.24
73624;BME280;61921;53.226;-1.296;2022-12-10T06:04:27;99683.46;;;3.23;85.92
73624;BME280;61921;53.226;-1.296;2022-12-10T06:06:53;99681.73;;;3.22;85.69
73624;BME280;61921;53.226;-1.296;2022-12-10T06:09:18;99683.90;;;3.14;85.51
73624;BME280;61921;53.226;-1.296;2022-12-10T06:11:44;99681.53;;;3.07;85.71
73624;BME280;61921;53.226;-1.296;2022-12-10T06:14:10;99682.49;;;3.04;85.66
73624;BME280;61921;53.226;-1.296;2022-12-10T06:16:35;99680.51;;;2.98;85.55
73624;BME280;61921;53.226;-1.296;2022-12-10T06:19:00;99682.80;;;2.86;85.97
73624;BME280;61921;53.226;-1.296;2022-12-10T06:21:26;99681.46;;;2.85;85.69
73624;BME280;61921;53.226;-1.296;2022-12-10T06:23:52;99682.43;;;2.75;85.44
73624;BME280;61921;53.226;-1.296;2022-12-10T06:26:20;99681.94;;;2.69;85.66
73624;BME280;61921;53.226;-1.296;2022-12-10T06:28:45;99682.24;;;2.66;85.53
73624;BME280;61921;53.226;-1.296;2022-12-10T06:31:08;99686.43;;;2.60;86.07
73624;BME280;61921;53.226;-1.296;2022-12-10T06:33:34;99685.43;;;2.57;86.64
73624;BME280;61921;53.226;-1.296;2022-12-10T06:36:02;99686.99;;;2.69;86.96
73624;BME280;61921;53.226;-1.296;2022-12-10T06:38:25;99686.61;;;2.74;87.64
73624;BME280;61921;53.226;-1.296;2022-12-10T06:40:51;99683.52;;;2.79;87.07
73624;BME280;61921;53.226;-1.296;2022-12-10T06:43:16;99682.58;;;2.96;86.42
73624;BME280;61921;53.226;-1.296;2022-12-10T06:45:42;99685.44;;;2.88;86.80
73624;BME280;61921;53.226;-1.296;2022-12-10T06:48:08;99689.14;;;2.91;86.58
73624;BME280;61921;53.226;-1.296;2022-12-10T06:50:34;99688.43;;;2.97;86.82
73624;BME280;61921;53.226;-1.296;2022-12-10T06:52:58;99691.56;;;2.98;87.03
73624;BME280;61921;53.226;-1.296;2022-12-10T06:55:24;99692.75;;;2.88;87.57
73624;BME280;61921;53.226;-1.296;2022-12-10T06:57:51;99692.69;;;2.99;87.72
73624;BME280;61921;53.226;-1.296;2022-12-10T07:00:15;99693.94;;;3.09;87.11
73624;BME280;61921;53.226;-1.296;2022-12-10T07:02:40;99692.14;;;3.04;86.89
73624;BME280;61921;53.226;-1.296;2022-12-10T07:05:05;99687.94;;;3.02;86.77
73624;BME280;61921;53.226;-1.296;2022-12-10T07:07:30;99688.49;;;2.96;86.55
73624;BME280;61921;53.226;-1.296;2022-12-10T07:09:56;99689.61;;;2.88;86.26
73624;BME280;61921;53.226;-1.296;2022-12-10T07:12:21;99691.49;;;2.73;86.69
73624;BME280;61921;53.226;-1.296;2022-12-10T07:14:46;99692.01;;;2.76;86.55
73624;BME280;61921;53.226;-1.296;2022-12-10T07:17:12;99692.96;;;2.73;85.70
73624;BME280;61921;53.226;-1.296;2022-12-10T07:19:38;99695.27;;;2.59;85.95
73624;BME280;61921;53.226;-1.296;2022-12-10T07:22:03;99697.62;;;2.62;86.16
73624;BME280;61921;53.226;-1.296;2022-12-10T07:24:29;99696.76;;;2.56;86.58
73624;BME280;61921;53.226;-1.296;2022-12-10T07:26:54;99698.03;;;2.64;86.79
73624;BME280;61921;53.226;-1.296;2022-12-10T07:29:21;99698.22;;;2.62;87.10
73624;BME280;61921;53.226;-1.296;2022-12-10T07:31:45;99700.26;;;2.75;86.83
73624;BME280;61921;53.226;-1.296;2022-12-10T07:34:11;99701.13;;;2.74;86.30
73624;BME280;61921;53.226;-1.296;2022-12-10T07:36:36;99702.67;;;2.83;85.48
73624;BME280;61921;53.226;-1.296;2022-12-10T07:39:01;99701.53;;;2.83;85.34
73624;BME280;61921;53.226;-1.296;2022-12-10T07:41:26;99700.40;;;2.60;86.44
73624;BME280;61921;53.226;-1.296;2022-12-10T07:43:52;99702.42;;;2.59;86.52
73624;BME280;61921;53.226;-1.296;2022-12-10T07:46:20;99703.09;;;2.56;86.59
73624;BME280;61921;53.226;-1.296;2022-12-10T07:48:44;99705.70;;;2.55;86.64
73624;BME280;61921;53.226;-1.296;2022-12-10T07:51:09;99710.03;;;2.43;87.18
73624;BME280;61921;53.226;-1.296;2022-12-10T07:53:34;99710.57;;;2.37;87.60
73624;BME280;61921;53.226;-1.296;2022-12-10T07:55:59;99711.16;;;2.38;87.52
73624;BME280;61921;53.226;-1.296;2022-12-10T07:58:24;99710.59;;;2.35;88.10
73624;BME280;61921;53.226;-1.296;2022-12-10T08:00:50;99713.12;;;2.49;87.82
73624;BME280;61921;53.226;-1.296;2022-12-10T08:03:15;99712.24;;;2.57;87.11
73624;BME280;61921;53.226;-1.296;2022-12-10T08:05:40;99718.37;;;2.68;86.79
73624;BME280;61921;53.226;-1.296;2022-12-10T08:08:05;99718.11;;;2.78;86.50
73624;BME280;61921;53.226;-1.296;2022-12-10T08:10:33;99719.48;;;2.82;86.12
73624;BME280;61921;53.226;-1.296;2022-12-10T08:12:56;99719.08;;;2.73;86.45
73624;BME280;61921;53.226;-1.296;2022-12-10T08:15:21;99719.41;;;2.55;87.03
73624;BME280;61921;53.226;-1.296;2022-12-10T08:17:47;99719.24;;;2.55;87.32
73624;BME280;61921;53.226;-1.296;2022-12-10T08:20:12;99722.58;;;2.64;87.25
73624;BME280;61921;53.226;-1.296;2022-12-10T08:22:37;99723.43;;;2.60;87.35
73624;BME280;61921;53.226;-1.296;2022-12-10T08:25:03;99727.44;;;2.66;87.32
73624;BME280;61921;53.226;-1.296;2022-12-10T08:27:28;99727.23;;;2.65;87.56
73624;BME280;61921;53.226;-1.296;2022-12-10T08:29:54;99732.35;;;2.74;87.31
73624;BME280;61921;53.226;-1.296;2022-12-10T08:32:19;99735.92;;;2.80;87.10
73624;BME280;61921;53.226;-1.296;2022-12-10T08:34:45;99741.97;;;2.88;87.16
73624;BME280;61921;53.226;-1.296;2022-12-10T08:37:10;99744.38;;;2.85;87.31
73624;BME280;61921;53.226;-1.296;2022-12-10T08:39:35;99749.89;;;2.92;87.30
73624;BME280;61921;53.226;-1.296;2022-12-10T08:42:01;99749.60;;;2.94;87.39
73624;BME280;61921;53.226;-1.296;2022-12-10T08:44:26;99748.56;;;3.07;87.17
73624;BME280;61921;53.226;-1.296;2022-12-10T08:46:51;99749.35;;;3.09;86.74
73624;BME280;61921;53.226;-1.296;2022-12-10T08:49:17;99748.76;;;3.08;86.95
73624;BME280;61921;53.226;-1.296;2022-12-10T08:51:42;99745.43;;;3.05;86.59
73624;BME280;61921;53.226;-1.296;2022-12-10T08:54:08;99746.28;;;3.01;86.45
73624;BME280;61921;53.226;-1.296;2022-12-10T08:56:33;99744.61;;;3.05;86.46
73624;BME280;61921;53.226;-1.296;2022-12-10T08:58:58;99740.98;;;2.90;86.97
73624;BME280;61921;53.226;-1.296;2022-12-10T09:01:24;99741.42;;;2.77;87.66
73624;BME280;61921;53.226;-1.296;2022-12-10T09:03:49;99738.07;;;2.82;87.79
73624;BME280;61921;53.226;-1.296;2022-12-10T09:06:17;99735.51;;;2.84;87.80
73624;BME280;61921;53.226;-1.296;2022-12-10T09:08:40;99735.88;;;3.10;87.16
73624;BME280;61921;53.226;-1.296;2022-12-10T09:11:07;99735.58;;;3.27;86.91
73624;BME280;61921;53.226;-1.296;2022-12-10T09:13:31;99738.52;;;3.45;86.58
73624;BME280;61921;53.226;-1.296;2022-12-10T09:15:56;99741.60;;;3.51;86.64
73624;BME280;61921;53.226;-1.296;2022-12-10T09:18:21;99742.67;;;3.48;86.37
73624;BME280;61921;53.226;-1.296;2022-12-10T09:20:47;99744.04;;;3.55;86.61
73624;BME280;61921;53.226;-1.296;2022-12-10T09:23:12;99746.64;;;3.69;86.63
73624;BME280;61921;53.226;-1.296;2022-12-10T09:25:38;99744.69;;;3.84;85.75
73624;BME280;61921;53.226;-1.296;2022-12-10T09:28:04;99744.37;;;3.88;85.16
73624;BME280;61921;53.226;-1.296;2022-12-10T09:30:29;99748.08;;;4.03;84.82
73624;BME280;61921;53.226;-1.296;2022-12-10T09:32:54;99743.91;;;3.94;84.63
73624;BME280;61921;53.226;-1.296;2022-12-10T09:35:19;99745.60;;;3.78;85.14
73624;BME280;61921;53.226;-1.296;2022-12-10T09:37:45;99748.01;;;3.63;85.14
73624;BME280;61921;53.226;-1.296;2022-12-10T09:40:14;99748.94;;;3.45;85.64
73624;BME280;61921;53.226;-1.296;2022-12-10T09:42:44;99755.79;;;3.34;86.41
73624;BME280;61921;53.226;-1.296;2022-12-10T09:45:09;99759.33;;;3.23;86.77
73624;BME280;61921;53.226;-1.296;2022-12-10T09:47:33;99757.20;;;3.20;87.53
73624;BME280;61921;53.226;-1.296;2022-12-10T09:50:01;99758.32;;;3.27;87.33
73624;BME280;61921;53.226;-1.296;2022-12-10T09:52:20;99759.88;;;3.28;86.63
73624;BME280;61921;53.226;-1.296;2022-12-10T09:54:49;99759.18;;;3.51;86.72
73624;BME280;61921;53.226;-1.296;2022-12-10T09:57:17;99763.05;;;3.54;86.34
73624;BME280;61921;53.226;-1.296;2022-12-10T09:59:39;99762.21;;;3.42;86.48
73624;BME280;61921;53.226;-1.296;2022-12-10T10:02:10;99762.25;;;3.30;86.73
73624;BME280;61921;53.226;-1.296;2022-12-10T10:04:27;99762.13;;;3.25;86.37
73624;BME280;61921;53.226;-1.296;2022-12-10T10:06:52;99763.68;;;3.17;86.01
73624;BME280;61921;53.226;-1.296;2022-12-10T10:09:18;99767.24;;;3.25;85.28
73624;BME280;61921;53.226;-1.296;2022-12-10T10:11:44;99769.38;;;3.36;85.16
73624;BME280;61921;53.226;-1.296;2022-12-10T10:14:13;99772.46;;;3.23;84.77
73624;BME280;61921;53.226;-1.296;2022-12-10T10:16:37;99771.96;;;3.49;84.43
73624;BME280;61921;53.226;-1.296;2022-12-10T10:19:02;99777.69;;;3.55;83.97
73624;BME280;61921;53.226;-1.296;2022-12-10T10:21:27;99780.99;;;3.69;83.33
73624;BME280;61921;53.226;-1.296;2022-12-10T10:23:51;99780.96;;;3.62;83.02
73624;BME280;61921;53.226;-1.296;2022-12-10T10:26:16;99778.78;;;3.54;83.02
73624;BME280;61921;53.226;-1.296;2022-12-10T10:28:42;99777.53;;;3.76;83.38
73624;BME280;61921;53.226;-1.296;2022-12-10T10:31:16;99776.81;;;3.60;82.47
73624;BME280;61921;53.226;-1.296;2022-12-10T10:33:37;99773.04;;;3.66;82.60
73624;BME280;61921;53.226;-1.296;2022-12-10T10:35:58;99772.76;;;3.80;82.88
73624;BME280;61921;53.226;-1.296;2022-12-10T10:38:26;99772.70;;;3.89;82.43
73624;BME280;61921;53.226;-1.296;2022-12-10T10:40:51;99773.35;;;3.73;82.10
73624;BME280;61921;53.226;-1.296;2022-12-10T10:43:17;99776.06;;;3.68;82.15
73624;BME280;61921;53.226;-1.296;2022-12-10T10:45:40;99772.12;;;3.62;82.42
73624;BME280;61921;53.226;-1.296;2022-12-10T10:48:08;99770.85;;;3.69;82.43
73624;BME280;61921;53.226;-1.296;2022-12-10T10:50:30;99767.60;;;3.72;82.41
73624;BME280;61921;53.226;-1.296;2022-12-10T10:52:55;99764.57;;;3.92;82.81
73624;BME280;61921;53.226;-1.296;2022-12-10T10:55:31;99765.02;;;4.02;81.96
73624;BME280;61921;53.226;-1.296;2022-12-10T10:57:47;99763.23;;;4.29;82.15
73624;BME280;61921;53.226;-1.296;2022-12-10T11:00:18;99763.09;;;4.31;80.76
73624;BME280;61921;53.226;-1.296;2022-12-10T11:02:40;99762.76;;;4.24;80.95
73624;BME280;61921;53.226;-1.296;2022-12-10T11:05:06;99764.32;;;4.32;80.81
73624;BME280;61921;53.226;-1.296;2022-12-10T11:07:34;99758.66;;;4.40;81.15
73624;BME280;61921;53.226;-1.296;2022-12-10T11:09:54;99753.92;;;4.67;80.89
73624;BME280;61921;53.226;-1.296;2022-12-10T11:12:29;99756.56;;;4.62;79.53
73624;BME280;61921;53.226;-1.296;2022-12-10T11:14:45;99755.40;;;4.86;79.81
73624;BME280;61921;53.226;-1.296;2022-12-10T11:17:18;99757.08;;;4.98;79.29
73624;BME280;61921;53.226;-1.296;2022-12-10T11:19:35;99758.28;;;5.27;79.06
73624;BME280;61921;53.226;-1.296;2022-12-10T11:24:26;99762.53;;;5.07;77.80
73624;BME280;61921;53.226;-1.296;2022-12-10T11:26:59;99761.08;;;5.18;78.29
73624;BME280;61921;53.226;-1.296;2022-12-10T11:29:31;99761.76;;;5.25;77.70
73624;BME280;61921;53.226;-1.296;2022-12-10T11:31:54;99761.26;;;5.42;77.62
73624;BME280;61921;53.226;-1.296;2022-12-10T11:34:14;99763.28;;;5.34;77.00
73624;BME280;61921;53.226;-1.296;2022-12-10T11:36:38;99766.09;;;5.48;77.66
73624;BME280;61921;53.226;-1.296;2022-12-10T11:39:06;99768.91;;;5.52;77.29
73624;BME280;61921;53.226;-1.296;2022-12-10T11:41:29;99771.17;;;5.56;77.27
73624;BME280;61921;53.226;-1.296;2022-12-10T11:44:05;99769.16;;;5.61;76.90
73624;BME280;61921;53.226;-1.296;2022-12-10T11:46:27;99768.34;;;5.56;76.14
73624;BME280;61921;53.226;-1.296;2022-12-10T11:48:54;99766.53;;;5.31;75.70
73624;BME280;61921;53.226;-1.296;2022-12-10T11:51:11;99761.82;;;5.39;76.59
73624;BME280;61921;53.226;-1.296;2022-12-10T11:53:45;99757.62;;;5.34;76.89
73624;BME280;61921;53.226;-1.296;2022-12-10T11:56:05;99752.22;;;5.34;76.83
73624;BME280;61921;53.226;-1.296;2022-12-10T11:58:32;99748.86;;;5.39;77.16
73624;BME280;61921;53.226;-1.296;2022-12-10T12:00:57;99747.74;;;5.44;76.28
73624;BME280;61921;53.226;-1.296;2022-12-10T12:03:28;99746.53;;;5.44;75.98
73624;BME280;61921;53.226;-1.296;2022-12-10T12:05:52;99746.54;;;5.43;75.80
73624;BME280;61921;53.226;-1.296;2022-12-10T12:08:12;99742.40;;;5.41;76.24
73624;BME280;61921;53.226;-1.296;2022-12-10T12:10:45;99740.86;;;5.14;75.21
73624;BME280;61921;53.226;-1.296;2022-12-10T12:12:59;99744.86;;;5.35;76.86
73624;BME280;61921;53.226;-1.296;2022-12-10T12:15:25;99744.93;;;5.42;76.38
73624;BME280;61921;53.226;-1.296;2022-12-10T12:17:52;99744.57;;;5.57;76.37
73624;BME280;61921;53.226;-1.296;2022-12-10T12:20:18;99742.28;;;5.84;76.02
73624;BME280;61921;53.226;-1.296;2022-12-10T12:22:43;99741.48;;;5.83;75.00
73624;BME280;61921;53.226;-1.296;2022-12-10T12:25:08;99742.67;;;6.03;74.38
73624;BME280;61921;53.226;-1.296;2022-12-10T12:27:31;99743.83;;;6.12;73.76
73624;BME280;61921;53.226;-1.296;2022-12-10T12:30:02;99743.44;;;6.17;73.82
73624;BME280;61921;53.226;-1.296;2022-12-10T12:32:21;99744.70;;;6.17;73.61
73624;BME280;61921;53.226;-1.296;2022-12-10T12:34:49;99742.96;;;6.19;72.85
73624;BME280;61921;53.226;-1.296;2022-12-10T12:37:13;99742.51;;;6.26;73.60
73624;BME280;61921;53.226;-1.296;2022-12-10T12:39:43;99744.85;;;6.05;73.45
73624;BME280;61921;53.226;-1.296;2022-12-10T12:42:07;99743.21;;;6.27;74.19
73624;BME280;61921;53.226;-1.296;2022-12-10T12:44:32;99742.77;;;6.34;73.77
73624;BME280;61921;53.226;-1.296;2022-12-10T12:46:52;99740.42;;;6.41;73.63
73624;BME280;61921;53.226;-1.296;2022-12-10T12:49:21;99736.83;;;6.32;73.50
73624;BME280;61921;53.226;-1.296;2022-12-10T12:51:46;99738.41;;;6.36;73.73